Specktown, Pennsylvania
Current Conditions -  °F | °C
As of 11:53 PM on Thursday 30 Oct 2014 (Local Time) from KSEG Reporting Station
Overcast Overcast  
Wind Chill: 45°   Ceiling: 5500
Heat Index: 45°   Visibility: 7mi
Dew Point: 42°   Wind: 0mph
Humidity: 90%   Direction: NA
Pressure: 30.03"   Gusts: NA
Location:  40.6198°N, 76.7286°W
Report Text: KSEG 310353Z AUTO 00000KT 7SM OVC055 07/06 A3003 RMK AO2 SLP171 T00720056
Loading
Personal Weather Stations






























Interactive Weather Map
Tropical Storm Tracking
New forecast layout! Learn more

10-Day Weather Forecast

Advertisements
Track Severe Weather on mobile